sensor_id;sensor_type;location;lat;lon;timestamp;P1;durP1;ratioP1;P2;durP2;ratioP2
41426;SDS011;27171;51.812;19.514;2022-11-18T00:01:29;9.48;;;8.18;;
41426;SDS011;27171;51.812;19.514;2022-11-18T00:04:30;11.00;;;9.35;;
41426;SDS011;27171;51.812;19.514;2022-11-18T00:10:32;10.05;;;8.80;;
41426;SDS011;27171;51.812;19.514;2022-11-18T00:13:36;11.80;;;9.15;;
41426;SDS011;27171;51.812;19.514;2022-11-18T00:16:38;11.95;;;9.07;;
41426;SDS011;27171;51.812;19.514;2022-11-18T00:19:39;11.60;;;10.40;;
41426;SDS011;27171;51.812;19.514;2022-11-18T00:22:40;10.82;;;9.48;;
41426;SDS011;27171;51.812;19.514;2022-11-18T00:28:42;9.20;;;8.15;;
41426;SDS011;27171;51.812;19.514;2022-11-18T00:34:44;10.10;;;7.57;;
41426;SDS011;27171;51.812;19.514;2022-11-18T00:43:47;10.57;;;8.80;;
41426;SDS011;27171;51.812;19.514;2022-11-18T00:46:48;10.73;;;9.60;;
41426;SDS011;27171;51.812;19.514;2022-11-18T00:49:49;13.18;;;10.82;;
41426;SDS011;27171;51.812;19.514;2022-11-18T00:55:51;11.18;;;9.23;;
41426;SDS011;27171;51.812;19.514;2022-11-18T00:58:53;12.40;;;9.90;;
41426;SDS011;27171;51.812;19.514;2022-11-18T01:01:54;11.60;;;9.95;;
41426;SDS011;27171;51.812;19.514;2022-11-18T01:07:56;12.32;;;9.35;;
41426;SDS011;27171;51.812;19.514;2022-11-18T01:13:58;9.73;;;7.68;;
41426;SDS011;27171;51.812;19.514;2022-11-18T01:16:59;11.52;;;8.82;;
41426;SDS011;27171;51.812;19.514;2022-11-18T01:20:00;13.68;;;10.20;;
41426;SDS011;27171;51.812;19.514;2022-11-18T01:23:01;12.18;;;9.25;;
41426;SDS011;27171;51.812;19.514;2022-11-18T01:26:04;10.38;;;8.85;;
41426;SDS011;27171;51.812;19.514;2022-11-18T01:29:06;10.55;;;8.85;;
41426;SDS011;27171;51.812;19.514;2022-11-18T01:32:07;12.18;;;9.40;;
41426;SDS011;27171;51.812;19.514;2022-11-18T01:35:09;12.13;;;9.23;;
41426;SDS011;27171;51.812;19.514;2022-11-18T01:38:11;11.63;;;9.57;;
41426;SDS011;27171;51.812;19.514;2022-11-18T01:41:14;12.20;;;9.52;;
41426;SDS011;27171;51.812;19.514;2022-11-18T01:47:45;12.00;;;9.40;;
41426;SDS011;27171;51.812;19.514;2022-11-18T01:50:52;11.13;;;8.75;;
41426;SDS011;27171;51.812;19.514;2022-11-18T01:53:58;11.57;;;9.02;;
41426;SDS011;27171;51.812;19.514;2022-11-18T01:57:27;12.10;;;9.20;;
41426;SDS011;27171;51.812;19.514;2022-11-18T02:00:29;11.40;;;9.07;;
41426;SDS011;27171;51.812;19.514;2022-11-18T02:06:32;11.30;;;8.23;;
41426;SDS011;27171;51.812;19.514;2022-11-18T02:09:34;10.60;;;8.05;;
41426;SDS011;27171;51.812;19.514;2022-11-18T02:12:38;10.75;;;7.60;;
41426;SDS011;27171;51.812;19.514;2022-11-18T02:19:09;12.68;;;9.23;;
41426;SDS011;27171;51.812;19.514;2022-11-18T02:32:09;11.20;;;8.07;;
41426;SDS011;27171;51.812;19.514;2022-11-18T02:35:19;10.43;;;7.80;;
41426;SDS011;27171;51.812;19.514;2022-11-18T02:38:35;9.73;;;8.02;;
41426;SDS011;27171;51.812;19.514;2022-11-18T02:41:44;10.68;;;8.45;;
41426;SDS011;27171;51.812;19.514;2022-11-18T02:44:49;10.85;;;8.48;;
41426;SDS011;27171;51.812;19.514;2022-11-18T02:47:54;11.55;;;8.70;;
41426;SDS011;27171;51.812;19.514;2022-11-18T02:51:00;12.27;;;9.50;;
41426;SDS011;27171;51.812;19.514;2022-11-18T02:54:06;11.82;;;9.70;;
41426;SDS011;27171;51.812;19.514;2022-11-18T02:57:09;15.38;;;10.98;;
41426;SDS011;27171;51.812;19.514;2022-11-18T03:00:12;12.82;;;10.13;;
41426;SDS011;27171;51.812;19.514;2022-11-18T03:03:20;15.90;;;11.10;;
41426;SDS011;27171;51.812;19.514;2022-11-18T03:09:45;16.05;;;13.05;;
41426;SDS011;27171;51.812;19.514;2022-11-18T03:12:58;16.45;;;12.70;;
41426;SDS011;27171;51.812;19.514;2022-11-18T03:16:09;15.05;;;11.63;;
41426;SDS011;27171;51.812;19.514;2022-11-18T03:19:22;14.93;;;11.40;;
41426;SDS011;27171;51.812;19.514;2022-11-18T03:22:32;14.38;;;11.45;;
41426;SDS011;27171;51.812;19.514;2022-11-18T03:25:53;12.82;;;10.23;;
41426;SDS011;27171;51.812;19.514;2022-11-18T03:29:13;13.30;;;10.55;;
41426;SDS011;27171;51.812;19.514;2022-11-18T03:32:23;15.07;;;11.40;;
41426;SDS011;27171;51.812;19.514;2022-11-18T03:35:28;14.73;;;12.90;;
41426;SDS011;27171;51.812;19.514;2022-11-18T03:38:33;17.38;;;12.18;;
41426;SDS011;27171;51.812;19.514;2022-11-18T03:41:40;14.88;;;11.90;;
41426;SDS011;27171;51.812;19.514;2022-11-18T03:44:49;13.90;;;12.00;;
41426;SDS011;27171;51.812;19.514;2022-11-18T03:48:15;15.70;;;12.60;;
41426;SDS011;27171;51.812;19.514;2022-11-18T03:51:16;14.80;;;12.00;;
41426;SDS011;27171;51.812;19.514;2022-11-18T03:54:28;17.83;;;13.20;;
41426;SDS011;27171;51.812;19.514;2022-11-18T03:57:34;15.68;;;12.27;;
41426;SDS011;27171;51.812;19.514;2022-11-18T04:00:42;14.27;;;11.30;;
41426;SDS011;27171;51.812;19.514;2022-11-18T04:03:47;14.80;;;11.45;;
41426;SDS011;27171;51.812;19.514;2022-11-18T04:10:14;13.57;;;10.02;;
41426;SDS011;27171;51.812;19.514;2022-11-18T04:13:28;13.32;;;11.05;;
41426;SDS011;27171;51.812;19.514;2022-11-18T04:16:41;16.92;;;12.18;;
41426;SDS011;27171;51.812;19.514;2022-11-18T04:19:43;14.45;;;11.75;;
41426;SDS011;27171;51.812;19.514;2022-11-18T04:22:44;17.05;;;12.88;;
41426;SDS011;27171;51.812;19.514;2022-11-18T04:25:46;17.35;;;13.57;;
41426;SDS011;27171;51.812;19.514;2022-11-18T04:31:48;17.52;;;13.73;;
41426;SDS011;27171;51.812;19.514;2022-11-18T04:34:49;18.70;;;14.85;;
41426;SDS011;27171;51.812;19.514;2022-11-18T04:40:51;23.10;;;16.48;;
41426;SDS011;27171;51.812;19.514;2022-11-18T04:43:52;22.45;;;16.98;;
41426;SDS011;27171;51.812;19.514;2022-11-18T04:46:54;24.48;;;17.23;;
41426;SDS011;27171;51.812;19.514;2022-11-18T04:49:56;26.58;;;18.70;;
41426;SDS011;27171;51.812;19.514;2022-11-18T04:56:05;27.13;;;19.52;;
41426;SDS011;27171;51.812;19.514;2022-11-18T04:59:06;27.70;;;18.90;;
41426;SDS011;27171;51.812;19.514;2022-11-18T05:02:07;29.20;;;19.98;;
41426;SDS011;27171;51.812;19.514;2022-11-18T05:05:09;32.67;;;20.92;;
41426;SDS011;27171;51.812;19.514;2022-11-18T05:11:10;28.30;;;18.67;;
41426;SDS011;27171;51.812;19.514;2022-11-18T05:14:12;26.08;;;18.95;;
41426;SDS011;27171;51.812;19.514;2022-11-18T05:17:13;29.85;;;19.85;;
41426;SDS011;27171;51.812;19.514;2022-11-18T05:23:16;26.35;;;17.70;;
41426;SDS011;27171;51.812;19.514;2022-11-18T05:26:17;28.10;;;18.90;;
41426;SDS011;27171;51.812;19.514;2022-11-18T05:29:18;25.80;;;18.02;;
41426;SDS011;27171;51.812;19.514;2022-11-18T05:32:20;25.92;;;18.65;;
41426;SDS011;27171;51.812;19.514;2022-11-18T05:35:21;27.02;;;18.02;;
41426;SDS011;27171;51.812;19.514;2022-11-18T05:38:22;26.05;;;18.05;;
41426;SDS011;27171;51.812;19.514;2022-11-18T05:41:23;25.48;;;16.73;;
41426;SDS011;27171;51.812;19.514;2022-11-18T05:44:24;24.55;;;16.48;;
41426;SDS011;27171;51.812;19.514;2022-11-18T05:47:25;25.48;;;18.20;;
41426;SDS011;27171;51.812;19.514;2022-11-18T05:53:27;22.58;;;15.80;;
41426;SDS011;27171;51.812;19.514;2022-11-18T05:56:30;22.60;;;15.80;;
41426;SDS011;27171;51.812;19.514;2022-11-18T05:59:37;24.38;;;17.13;;
41426;SDS011;27171;51.812;19.514;2022-11-18T06:02:39;25.13;;;17.38;;
41426;SDS011;27171;51.812;19.514;2022-11-18T06:05:42;25.48;;;18.73;;
41426;SDS011;27171;51.812;19.514;2022-11-18T06:08:45;25.30;;;16.67;;
41426;SDS011;27171;51.812;19.514;2022-11-18T06:11:51;27.73;;;18.73;;
41426;SDS011;27171;51.812;19.514;2022-11-18T06:14:59;23.67;;;16.42;;
41426;SDS011;27171;51.812;19.514;2022-11-18T06:18:19;23.48;;;16.52;;
41426;SDS011;27171;51.812;19.514;2022-11-18T06:21:26;23.83;;;16.35;;
41426;SDS011;27171;51.812;19.514;2022-11-18T06:24:28;22.88;;;15.18;;
41426;SDS011;27171;51.812;19.514;2022-11-18T06:27:29;19.77;;;14.07;;
41426;SDS011;27171;51.812;19.514;2022-11-18T06:30:30;17.80;;;12.63;;
41426;SDS011;27171;51.812;19.514;2022-11-18T06:33:32;17.95;;;12.82;;
41426;SDS011;27171;51.812;19.514;2022-11-18T06:36:33;16.33;;;12.07;;
41426;SDS011;27171;51.812;19.514;2022-11-18T06:39:35;13.38;;;10.10;;
41426;SDS011;27171;51.812;19.514;2022-11-18T06:42:36;13.88;;;9.55;;
41426;SDS011;27171;51.812;19.514;2022-11-18T06:45:37;13.15;;;9.75;;
41426;SDS011;27171;51.812;19.514;2022-11-18T06:48:39;12.65;;;8.93;;
41426;SDS011;27171;51.812;19.514;2022-11-18T06:51:40;11.68;;;9.25;;
41426;SDS011;27171;51.812;19.514;2022-11-18T06:54:41;14.35;;;9.60;;
41426;SDS011;27171;51.812;19.514;2022-11-18T07:00:43;14.98;;;9.65;;
41426;SDS011;27171;51.812;19.514;2022-11-18T07:03:44;15.95;;;10.90;;
41426;SDS011;27171;51.812;19.514;2022-11-18T07:06:46;14.73;;;11.05;;
41426;SDS011;27171;51.812;19.514;2022-11-18T07:09:47;15.90;;;11.85;;
41426;SDS011;27171;51.812;19.514;2022-11-18T07:12:48;16.48;;;12.45;;
41426;SDS011;27171;51.812;19.514;2022-11-18T07:15:49;16.55;;;12.30;;
41426;SDS011;27171;51.812;19.514;2022-11-18T07:21:51;14.82;;;10.75;;
41426;SDS011;27171;51.812;19.514;2022-11-18T07:27:53;15.60;;;11.52;;
41426;SDS011;27171;51.812;19.514;2022-11-18T07:34:11;14.20;;;10.73;;
41426;SDS011;27171;51.812;19.514;2022-11-18T07:37:12;14.82;;;10.10;;
41426;SDS011;27171;51.812;19.514;2022-11-18T07:43:14;12.40;;;9.30;;
41426;SDS011;27171;51.812;19.514;2022-11-18T07:49:20;10.52;;;7.43;;
41426;SDS011;27171;51.812;19.514;2022-11-18T07:55:23;6.88;;;4.43;;
41426;SDS011;27171;51.812;19.514;2022-11-18T07:58:24;6.75;;;4.60;;
41426;SDS011;27171;51.812;19.514;2022-11-18T08:01:25;5.35;;;4.00;;
41426;SDS011;27171;51.812;19.514;2022-11-18T08:07:27;5.75;;;4.00;;
41426;SDS011;27171;51.812;19.514;2022-11-18T08:13:29;6.65;;;4.07;;
41426;SDS011;27171;51.812;19.514;2022-11-18T08:16:30;6.07;;;3.95;;
41426;SDS011;27171;51.812;19.514;2022-11-18T08:19:33;5.82;;;4.10;;
41426;SDS011;27171;51.812;19.514;2022-11-18T08:22:34;6.53;;;4.70;;
41426;SDS011;27171;51.812;19.514;2022-11-18T08:25:35;6.95;;;4.38;;
41426;SDS011;27171;51.812;19.514;2022-11-18T08:28:36;6.65;;;4.43;;
41426;SDS011;27171;51.812;19.514;2022-11-18T08:31:37;6.00;;;4.03;;
41426;SDS011;27171;51.812;19.514;2022-11-18T08:37:39;4.90;;;3.05;;
41426;SDS011;27171;51.812;19.514;2022-11-18T08:43:43;6.00;;;3.58;;
41426;SDS011;27171;51.812;19.514;2022-11-18T08:46:45;6.13;;;4.05;;
41426;SDS011;27171;51.812;19.514;2022-11-18T08:49:46;5.47;;;3.95;;
41426;SDS011;27171;51.812;19.514;2022-11-18T08:55:53;5.50;;;3.40;;
41426;SDS011;27171;51.812;19.514;2022-11-18T08:58:58;5.15;;;3.45;;
41426;SDS011;27171;51.812;19.514;2022-11-18T09:01:59;4.47;;;3.03;;
41426;SDS011;27171;51.812;19.514;2022-11-18T09:08:01;3.70;;;2.28;;
41426;SDS011;27171;51.812;19.514;2022-11-18T09:14:11;3.35;;;1.92;;
41426;SDS011;27171;51.812;19.514;2022-11-18T09:17:13;3.78;;;2.42;;
41426;SDS011;27171;51.812;19.514;2022-11-18T09:20:14;3.20;;;2.08;;
41426;SDS011;27171;51.812;19.514;2022-11-18T09:23:16;4.82;;;2.55;;
41426;SDS011;27171;51.812;19.514;2022-11-18T09:29:19;3.13;;;1.85;;
41426;SDS011;27171;51.812;19.514;2022-11-18T09:32:20;3.10;;;2.08;;
41426;SDS011;27171;51.812;19.514;2022-11-18T09:38:22;3.78;;;1.98;;
41426;SDS011;27171;51.812;19.514;2022-11-18T09:44:44;3.90;;;1.98;;
41426;SDS011;27171;51.812;19.514;2022-11-18T09:47:49;3.27;;;1.83;;
41426;SDS011;27171;51.812;19.514;2022-11-18T09:50:50;3.90;;;2.75;;
41426;SDS011;27171;51.812;19.514;2022-11-18T09:53:51;4.32;;;2.55;;
41426;SDS011;27171;51.812;19.514;2022-11-18T09:59:54;4.15;;;2.97;;
41426;SDS011;27171;51.812;19.514;2022-11-18T10:06:03;4.47;;;3.10;;
41426;SDS011;27171;51.812;19.514;2022-11-18T10:12:41;5.50;;;3.75;;
41426;SDS011;27171;51.812;19.514;2022-11-18T10:25:33;4.70;;;3.33;;
41426;SDS011;27171;51.812;19.514;2022-11-18T10:34:50;5.00;;;2.35;;
41426;SDS011;27171;51.812;19.514;2022-11-18T10:37:59;4.55;;;2.95;;
41426;SDS011;27171;51.812;19.514;2022-11-18T10:41:02;4.82;;;3.60;;
41426;SDS011;27171;51.812;19.514;2022-11-18T10:51:00;7.37;;;3.37;;
41426;SDS011;27171;51.812;19.514;2022-11-18T10:54:22;4.63;;;3.13;;
41426;SDS011;27171;51.812;19.514;2022-11-18T10:57:23;5.03;;;3.90;;
41426;SDS011;27171;51.812;19.514;2022-11-18T11:00:36;5.10;;;3.22;;
41426;SDS011;27171;51.812;19.514;2022-11-18T11:10:26;6.22;;;3.67;;
41426;SDS011;27171;51.812;19.514;2022-11-18T11:16:30;6.32;;;3.60;;
41426;SDS011;27171;51.812;19.514;2022-11-18T11:22:50;4.50;;;2.70;;
41426;SDS011;27171;51.812;19.514;2022-11-18T11:25:55;5.60;;;3.42;;
41426;SDS011;27171;51.812;19.514;2022-11-18T11:32:53;4.53;;;2.75;;
41426;SDS011;27171;51.812;19.514;2022-11-18T11:42:52;4.50;;;2.97;;
41426;SDS011;27171;51.812;19.514;2022-11-18T11:49:35;6.38;;;3.55;;
41426;SDS011;27171;51.812;19.514;2022-11-18T11:53:08;5.20;;;3.50;;
41426;SDS011;27171;51.812;19.514;2022-11-18T11:56:26;6.43;;;3.95;;
41426;SDS011;27171;51.812;19.514;2022-11-18T12:06:07;3.58;;;2.83;;
41426;SDS011;27171;51.812;19.514;2022-11-18T12:10:01;4.30;;;2.78;;
41426;SDS011;27171;51.812;19.514;2022-11-18T12:12:41;4.60;;;3.53;;
41426;SDS011;27171;51.812;19.514;2022-11-18T12:15:50;5.57;;;3.88;;
41426;SDS011;27171;51.812;19.514;2022-11-18T12:19:10;10.73;;;5.47;;
41426;SDS011;27171;51.812;19.514;2022-11-18T12:22:14;8.70;;;5.07;;
41426;SDS011;27171;51.812;19.514;2022-11-18T12:28:31;6.40;;;4.25;;
41426;SDS011;27171;51.812;19.514;2022-11-18T12:31:34;6.30;;;4.38;;
41426;SDS011;27171;51.812;19.514;2022-11-18T12:34:42;6.38;;;4.80;;
41426;SDS011;27171;51.812;19.514;2022-11-18T12:40:51;7.15;;;4.57;;
41426;SDS011;27171;51.812;19.514;2022-11-18T12:52:59;7.13;;;5.07;;
41426;SDS011;27171;51.812;19.514;2022-11-18T12:56:08;7.97;;;5.30;;
41426;SDS011;27171;51.812;19.514;2022-11-18T12:59:35;7.32;;;5.43;;
41426;SDS011;27171;51.812;19.514;2022-11-18T13:02:36;8.50;;;5.10;;
41426;SDS011;27171;51.812;19.514;2022-11-18T13:05:37;6.30;;;5.03;;
41426;SDS011;27171;51.812;19.514;2022-11-18T13:08:39;8.43;;;5.88;;
41426;SDS011;27171;51.812;19.514;2022-11-18T13:11:54;9.05;;;5.80;;
41426;SDS011;27171;51.812;19.514;2022-11-18T13:14:58;9.13;;;6.38;;
41426;SDS011;27171;51.812;19.514;2022-11-18T13:21:19;7.75;;;5.65;;
41426;SDS011;27171;51.812;19.514;2022-11-18T13:24:24;7.67;;;5.57;;
41426;SDS011;27171;51.812;19.514;2022-11-18T13:30:45;7.35;;;5.30;;
41426;SDS011;27171;51.812;19.514;2022-11-18T13:34:02;6.40;;;4.60;;
41426;SDS011;27171;51.812;19.514;2022-11-18T13:37:17;7.93;;;4.97;;
41426;SDS011;27171;51.812;19.514;2022-11-18T13:40:42;5.55;;;3.75;;
41426;SDS011;27171;51.812;19.514;2022-11-18T13:43:45;6.22;;;4.32;;
41426;SDS011;27171;51.812;19.514;2022-11-18T13:49:50;5.38;;;3.47;;
41426;SDS011;27171;51.812;19.514;2022-11-18T13:59:23;6.45;;;4.47;;
41426;SDS011;27171;51.812;19.514;2022-11-18T14:02:25;6.53;;;4.32;;
41426;SDS011;27171;51.812;19.514;2022-11-18T14:11:39;7.85;;;4.80;;
41426;SDS011;27171;51.812;19.514;2022-11-18T14:14:42;8.90;;;5.97;;
41426;SDS011;27171;51.812;19.514;2022-11-18T14:20:52;11.15;;;5.63;;
41426;SDS011;27171;51.812;19.514;2022-11-18T14:23:54;7.65;;;5.43;;
41426;SDS011;27171;51.812;19.514;2022-11-18T14:26:56;7.53;;;5.65;;
41426;SDS011;27171;51.812;19.514;2022-11-18T14:36:23;4.60;;;3.30;;
41426;SDS011;27171;51.812;19.514;2022-11-18T14:39:29;4.20;;;3.08;;
41426;SDS011;27171;51.812;19.514;2022-11-18T14:42:31;4.97;;;3.42;;
41426;SDS011;27171;51.812;19.514;2022-11-18T14:48:33;5.50;;;3.58;;
41426;SDS011;27171;51.812;19.514;2022-11-18T14:51:34;6.20;;;4.03;;
41426;SDS011;27171;51.812;19.514;2022-11-18T14:54:35;7.20;;;4.60;;
41426;SDS011;27171;51.812;19.514;2022-11-18T14:57:37;7.30;;;4.90;;
41426;SDS011;27171;51.812;19.514;2022-11-18T15:03:39;5.45;;;3.80;;
41426;SDS011;27171;51.812;19.514;2022-11-18T15:06:40;11.68;;;6.63;;
41426;SDS011;27171;51.812;19.514;2022-11-18T15:09:41;7.78;;;4.57;;
41426;SDS011;27171;51.812;19.514;2022-11-18T15:12:43;7.90;;;4.78;;
41426;SDS011;27171;51.812;19.514;2022-11-18T15:18:46;7.47;;;4.07;;
41426;SDS011;27171;51.812;19.514;2022-11-18T15:21:48;11.10;;;5.85;;
41426;SDS011;27171;51.812;19.514;2022-11-18T15:27:50;26.15;;;11.15;;
41426;SDS011;27171;51.812;19.514;2022-11-18T15:33:53;8.85;;;5.55;;
41426;SDS011;27171;51.812;19.514;2022-11-18T15:36:54;9.90;;;4.85;;
41426;SDS011;27171;51.812;19.514;2022-11-18T15:39:55;20.67;;;8.80;;
41426;SDS011;27171;51.812;19.514;2022-11-18T15:45:58;10.80;;;6.15;;
41426;SDS011;27171;51.812;19.514;2022-11-18T15:48:59;10.93;;;6.10;;
41426;SDS011;27171;51.812;19.514;2022-11-18T15:52:01;10.18;;;5.50;;
41426;SDS011;27171;51.812;19.514;2022-11-18T15:55:02;17.23;;;8.35;;
41426;SDS011;27171;51.812;19.514;2022-11-18T15:58:03;9.45;;;6.10;;
41426;SDS011;27171;51.812;19.514;2022-11-18T16:07:08;7.40;;;4.40;;
41426;SDS011;27171;51.812;19.514;2022-11-18T16:13:09;34.33;;;12.38;;
41426;SDS011;27171;51.812;19.514;2022-11-18T16:16:20;24.27;;;11.05;;
41426;SDS011;27171;51.812;19.514;2022-11-18T16:19:24;21.02;;;10.60;;
41426;SDS011;27171;51.812;19.514;2022-11-18T16:22:26;14.38;;;8.20;;
41426;SDS011;27171;51.812;19.514;2022-11-18T16:28:27;14.85;;;7.43;;
41426;SDS011;27171;51.812;19.514;2022-11-18T16:31:28;13.55;;;7.50;;
41426;SDS011;27171;51.812;19.514;2022-11-18T16:34:30;9.35;;;6.38;;
41426;SDS011;27171;51.812;19.514;2022-11-18T16:40:32;10.20;;;6.13;;
41426;SDS011;27171;51.812;19.514;2022-11-18T16:43:33;13.57;;;8.18;;
41426;SDS011;27171;51.812;19.514;2022-11-18T16:46:35;13.60;;;8.05;;
41426;SDS011;27171;51.812;19.514;2022-11-18T16:49:37;13.13;;;8.57;;
41426;SDS011;27171;51.812;19.514;2022-11-18T16:52:38;12.00;;;7.05;;
41426;SDS011;27171;51.812;19.514;2022-11-18T16:58:41;15.13;;;9.15;;
41426;SDS011;27171;51.812;19.514;2022-11-18T17:01:42;15.52;;;9.73;;
41426;SDS011;27171;51.812;19.514;2022-11-18T17:04:44;11.88;;;8.40;;
41426;SDS011;27171;51.812;19.514;2022-11-18T17:07:45;13.02;;;8.60;;
41426;SDS011;27171;51.812;19.514;2022-11-18T17:10:46;12.75;;;8.65;;
41426;SDS011;27171;51.812;19.514;2022-11-18T17:16:49;12.93;;;8.02;;
41426;SDS011;27171;51.812;19.514;2022-11-18T17:19:51;13.85;;;8.80;;
41426;SDS011;27171;51.812;19.514;2022-11-18T17:22:52;11.57;;;8.15;;
41426;SDS011;27171;51.812;19.514;2022-11-18T17:25:53;13.15;;;8.88;;
41426;SDS011;27171;51.812;19.514;2022-11-18T17:28:55;16.15;;;10.65;;
41426;SDS011;27171;51.812;19.514;2022-11-18T17:31:56;14.00;;;9.55;;
41426;SDS011;27171;51.812;19.514;2022-11-18T17:34:57;13.77;;;9.63;;
41426;SDS011;27171;51.812;19.514;2022-11-18T17:37:58;12.68;;;9.07;;
41426;SDS011;27171;51.812;19.514;2022-11-18T17:41:00;13.00;;;8.35;;
41426;SDS011;27171;51.812;19.514;2022-11-18T17:44:02;12.90;;;9.05;;
41426;SDS011;27171;51.812;19.514;2022-11-18T17:47:04;12.98;;;9.25;;
41426;SDS011;27171;51.812;19.514;2022-11-18T17:50:06;12.15;;;9.45;;
41426;SDS011;27171;51.812;19.514;2022-11-18T17:53:07;14.35;;;10.70;;
41426;SDS011;27171;51.812;19.514;2022-11-18T17:59:10;15.40;;;9.93;;
41426;SDS011;27171;51.812;19.514;2022-11-18T18:02:11;15.13;;;9.60;;
41426;SDS011;27171;51.812;19.514;2022-11-18T18:05:12;13.35;;;9.98;;
41426;SDS011;27171;51.812;19.514;2022-11-18T18:08:13;13.88;;;10.20;;
41426;SDS011;27171;51.812;19.514;2022-11-18T18:11:16;14.77;;;10.60;;
41426;SDS011;27171;51.812;19.514;2022-11-18T18:14:18;16.73;;;10.20;;
41426;SDS011;27171;51.812;19.514;2022-11-18T18:17:19;13.35;;;10.43;;
41426;SDS011;27171;51.812;19.514;2022-11-18T18:23:21;14.50;;;9.95;;
41426;SDS011;27171;51.812;19.514;2022-11-18T18:29:23;12.43;;;9.32;;
41426;SDS011;27171;51.812;19.514;2022-11-18T18:35:25;11.18;;;8.00;;
41426;SDS011;27171;51.812;19.514;2022-11-18T18:41:27;11.75;;;8.23;;
41426;SDS011;27171;51.812;19.514;2022-11-18T18:44:29;16.98;;;10.90;;
41426;SDS011;27171;51.812;19.514;2022-11-18T18:50:33;14.35;;;9.80;;
41426;SDS011;27171;51.812;19.514;2022-11-18T18:53:34;15.45;;;11.23;;
41426;SDS011;27171;51.812;19.514;2022-11-18T18:59:37;14.70;;;10.52;;
41426;SDS011;27171;51.812;19.514;2022-11-18T19:02:39;13.93;;;10.68;;
41426;SDS011;27171;51.812;19.514;2022-11-18T19:05:40;17.55;;;11.13;;
41426;SDS011;27171;51.812;19.514;2022-11-18T19:08:42;13.70;;;10.35;;
41426;SDS011;27171;51.812;19.514;2022-11-18T19:11:44;18.77;;;12.45;;
41426;SDS011;27171;51.812;19.514;2022-11-18T19:14:45;17.92;;;12.25;;
41426;SDS011;27171;51.812;19.514;2022-11-18T19:17:46;17.02;;;10.70;;
41426;SDS011;27171;51.812;19.514;2022-11-18T19:20:48;16.80;;;11.90;;
41426;SDS011;27171;51.812;19.514;2022-11-18T19:23:49;14.38;;;10.73;;
41426;SDS011;27171;51.812;19.514;2022-11-18T19:26:50;12.88;;;9.70;;
41426;SDS011;27171;51.812;19.514;2022-11-18T19:29:52;12.52;;;9.25;;
41426;SDS011;27171;51.812;19.514;2022-11-18T19:35:55;12.70;;;7.95;;
41426;SDS011;27171;51.812;19.514;2022-11-18T19:38:59;12.73;;;8.80;;
41426;SDS011;27171;51.812;19.514;2022-11-18T19:42:01;11.73;;;8.68;;
41426;SDS011;27171;51.812;19.514;2022-11-18T19:45:03;11.60;;;8.57;;
41426;SDS011;27171;51.812;19.514;2022-11-18T19:48:08;15.13;;;9.68;;
41426;SDS011;27171;51.812;19.514;2022-11-18T19:51:10;15.05;;;9.80;;
41426;SDS011;27171;51.812;19.514;2022-11-18T19:54:12;14.00;;;9.77;;
41426;SDS011;27171;51.812;19.514;2022-11-18T19:57:13;13.32;;;9.75;;
41426;SDS011;27171;51.812;19.514;2022-11-18T20:00:15;15.52;;;10.75;;
41426;SDS011;27171;51.812;19.514;2022-11-18T20:03:16;14.85;;;9.50;;
41426;SDS011;27171;51.812;19.514;2022-11-18T20:06:18;13.27;;;9.68;;
41426;SDS011;27171;51.812;19.514;2022-11-18T20:09:21;13.95;;;9.32;;
41426;SDS011;27171;51.812;19.514;2022-11-18T20:12:22;14.23;;;9.85;;
41426;SDS011;27171;51.812;19.514;2022-11-18T20:15:23;15.00;;;10.02;;
41426;SDS011;27171;51.812;19.514;2022-11-18T20:18:24;15.40;;;9.75;;
41426;SDS011;27171;51.812;19.514;2022-11-18T20:21:26;13.85;;;9.60;;
41426;SDS011;27171;51.812;19.514;2022-11-18T20:24:28;14.35;;;9.93;;
41426;SDS011;27171;51.812;19.514;2022-11-18T20:30:30;10.32;;;7.65;;
41426;SDS011;27171;51.812;19.514;2022-11-18T20:33:34;10.63;;;7.03;;
41426;SDS011;27171;51.812;19.514;2022-11-18T20:36:36;13.82;;;8.55;;
41426;SDS011;27171;51.812;19.514;2022-11-18T20:39:37;12.40;;;7.93;;
41426;SDS011;27171;51.812;19.514;2022-11-18T20:42:39;12.55;;;7.75;;
41426;SDS011;27171;51.812;19.514;2022-11-18T20:45:40;10.93;;;7.15;;
41426;SDS011;27171;51.812;19.514;2022-11-18T20:48:41;12.20;;;8.32;;
41426;SDS011;27171;51.812;19.514;2022-11-18T20:51:43;18.25;;;10.07;;
41426;SDS011;27171;51.812;19.514;2022-11-18T20:54:44;12.15;;;7.25;;
41426;SDS011;27171;51.812;19.514;2022-11-18T21:00:46;11.50;;;7.88;;
41426;SDS011;27171;51.812;19.514;2022-11-18T21:03:48;15.52;;;8.90;;
41426;SDS011;27171;51.812;19.514;2022-11-18T21:06:53;14.40;;;10.20;;
41426;SDS011;27171;51.812;19.514;2022-11-18T21:09:55;12.45;;;8.23;;
41426;SDS011;27171;51.812;19.514;2022-11-18T21:12:56;15.30;;;9.00;;
41426;SDS011;27171;51.812;19.514;2022-11-18T21:15:57;14.57;;;9.75;;
41426;SDS011;27171;51.812;19.514;2022-11-18T21:19:02;15.23;;;9.70;;
41426;SDS011;27171;51.812;19.514;2022-11-18T21:22:03;14.40;;;9.68;;
41426;SDS011;27171;51.812;19.514;2022-11-18T21:25:05;14.65;;;9.65;;
41426;SDS011;27171;51.812;19.514;2022-11-18T21:28:06;16.02;;;9.90;;
41426;SDS011;27171;51.812;19.514;2022-11-18T21:34:08;15.75;;;8.75;;
41426;SDS011;27171;51.812;19.514;2022-11-18T21:37:10;16.55;;;9.73;;
41426;SDS011;27171;51.812;19.514;2022-11-18T21:40:11;13.70;;;9.23;;
41426;SDS011;27171;51.812;19.514;2022-11-18T21:43:13;15.00;;;9.45;;
41426;SDS011;27171;51.812;19.514;2022-11-18T21:46:15;14.43;;;9.10;;
41426;SDS011;27171;51.812;19.514;2022-11-18T21:49:16;15.93;;;10.38;;
41426;SDS011;27171;51.812;19.514;2022-11-18T21:52:17;16.35;;;10.27;;
41426;SDS011;27171;51.812;19.514;2022-11-18T21:55:18;19.70;;;11.50;;
41426;SDS011;27171;51.812;19.514;2022-11-18T22:01:21;18.98;;;9.95;;
41426;SDS011;27171;51.812;19.514;2022-11-18T22:04:27;15.18;;;9.63;;
41426;SDS011;27171;51.812;19.514;2022-11-18T22:07:28;16.33;;;10.35;;
41426;SDS011;27171;51.812;19.514;2022-11-18T22:10:30;17.05;;;10.23;;
41426;SDS011;27171;51.812;19.514;2022-11-18T22:13:31;16.60;;;9.57;;
41426;SDS011;27171;51.812;19.514;2022-11-18T22:16:32;16.02;;;9.35;;
41426;SDS011;27171;51.812;19.514;2022-11-18T22:19:33;18.08;;;10.60;;
41426;SDS011;27171;51.812;19.514;2022-11-18T22:22:34;19.13;;;10.85;;
41426;SDS011;27171;51.812;19.514;2022-11-18T22:25:35;18.67;;;11.50;;
41426;SDS011;27171;51.812;19.514;2022-11-18T22:28:36;15.85;;;9.57;;
41426;SDS011;27171;51.812;19.514;2022-11-18T22:31:37;15.35;;;9.93;;
41426;SDS011;27171;51.812;19.514;2022-11-18T22:34:38;15.85;;;9.10;;
41426;SDS011;27171;51.812;19.514;2022-11-18T22:37:39;14.85;;;9.70;;
41426;SDS011;27171;51.812;19.514;2022-11-18T22:40:40;15.18;;;8.52;;
41426;SDS011;27171;51.812;19.514;2022-11-18T22:43:42;16.13;;;10.50;;
41426;SDS011;27171;51.812;19.514;2022-11-18T22:46:43;16.48;;;9.90;;
41426;SDS011;27171;51.812;19.514;2022-11-18T22:49:45;12.02;;;8.50;;
41426;SDS011;27171;51.812;19.514;2022-11-18T22:52:46;13.68;;;8.85;;
41426;SDS011;27171;51.812;19.514;2022-11-18T22:58:48;13.45;;;7.90;;
41426;SDS011;27171;51.812;19.514;2022-11-18T23:01:49;17.00;;;9.25;;
41426;SDS011;27171;51.812;19.514;2022-11-18T23:04:51;16.50;;;8.82;;